South Yarmouth, Massachusetts
Current Conditions -  °F | °C
As of 2:56 PM on Wednesday 17 Dec 2014 (Local Time) from KHYA Reporting Station
Overcast Overcast  
Wind Chill: 42°   Ceiling: 900
Heat Index: 47°   Visibility: 10mi
Dew Point: 43°   Wind: 10mph
Humidity: 86%   Direction: 300°WNW
Pressure: 29.66"   Gusts: NA
Location:  41.67°N, 70.19°W
Report Text: KHYA 171956Z 30009KT 10SM OVC009 08/06 A2966 RMK AO2 SLP046 T00830061
Loading
Personal Weather Stations






























Interactive Weather Map New forecast layout! Learn more

10-Day Weather Forecast

Advertisements
Track Severe Weather on mobile